Time;durP1;ratioP1;P1;durP2;ratioP2;P2;SDS_P1;SDS_P2;PMS_P1;PMS_P2;Temp;Humidity;BMP_temperature;BMP_pressure;BME280_temperature;BME280_humidity;BME280_pressure;Samples;Min_cycle;Max_cycle;Signal;HPM_P1;HPM_P2
2022/12/02 00:01:51;;;;;;;53.17;25.10;;;;;;;;;;4989867;28;20555;-65
2022/12/02 00:04:22;;;;;;;56.53;27.57;;;;;;;;;;4989807;28;20042;-65
2022/12/02 00:06:48;;;;;;;49.13;24.57;;;;;;;;;;5007465;28;20161;-65
2022/12/02 00:09:19;;;;;;;64.27;29.60;;;;;;;;;;5010219;28;20045;-65
2022/12/02 00:11:45;;;;;;;61.07;28.90;;;;;;;;;;5010155;28;20048;-65
2022/12/02 00:14:20;;;;;;;58.77;25.83;;;;;;;;;;5010430;28;20042;-65
2022/12/02 00:16:46;;;;;;;65.53;26.17;;;;;;;;;;5008978;28;20042;-65
2022/12/02 00:19:12;;;;;;;62.13;27.93;;;;;;;;;;5000302;28;20057;-65
2022/12/02 00:21:38;;;;;;;57.00;26.93;;;;;;;;;;4990372;28;20493;-65
2022/12/02 00:24:04;;;;;;;65.47;26.47;;;;;;;;;;4990774;28;20042;-65
2022/12/02 00:26:30;;;;;;;62.20;28.73;;;;;;;;;;4989412;28;20038;-65
2022/12/02 00:28:56;;;;;;;60.03;26.10;;;;;;;;;;4990658;28;20085;-65
2022/12/02 00:31:22;;;;;;;58.67;28.33;;;;;;;;;;4990486;28;20050;-65
2022/12/02 00:33:48;;;;;;;59.30;27.67;;;;;;;;;;4990370;28;20058;-65
2022/12/02 00:36:14;;;;;;;63.17;27.80;;;;;;;;;;4990508;28;20104;-64
2022/12/02 00:38:41;;;;;;;63.50;28.17;;;;;;;;;;4989993;28;20058;-65
2022/12/02 00:41:07;;;;;;;66.13;29.57;;;;;;;;;;4989259;28;20105;-65
2022/12/02 00:46:33;;;;;;;68.30;29.47;;;;;;;;;;4990461;28;20077;-65
2022/12/02 00:49:11;;;;;;;69.37;28.50;;;;;;;;;;4989975;28;20057;-65
2022/12/02 00:51:38;;;;;;;69.13;29.43;;;;;;;;;;4998278;28;20045;-65
2022/12/02 00:54:04;;;;;;;71.10;29.20;;;;;;;;;;5003846;28;20444;-65
2022/12/02 00:56:30;;;;;;;70.27;29.97;;;;;;;;;;4990067;28;20084;-64
2022/12/02 00:58:56;;;;;;;69.53;29.83;;;;;;;;;;4996786;28;20046;-65
2022/12/02 01:01:23;;;;;;;71.20;30.00;;;;;;;;;;5009804;28;20046;-65
2022/12/02 01:03:49;;;;;;;65.13;29.73;;;;;;;;;;5008534;28;20050;-64
2022/12/02 01:06:15;;;;;;;63.83;28.77;;;;;;;;;;5009562;28;20050;-65
2022/12/02 01:08:41;;;;;;;69.73;28.77;;;;;;;;;;5009637;28;20125;-65
2022/12/02 01:11:08;;;;;;;71.00;28.47;;;;;;;;;;5002718;28;20038;-64
2022/12/02 01:13:34;;;;;;;70.73;28.23;;;;;;;;;;4989814;28;20133;-65
2022/12/02 01:16:00;;;;;;;66.53;26.23;;;;;;;;;;4989878;28;20046;-64
2022/12/02 01:18:26;;;;;;;70.40;27.37;;;;;;;;;;4989248;28;20457;-65
2022/12/02 01:20:52;;;;;;;70.60;28.83;;;;;;;;;;4989773;28;20105;-65
2022/12/02 01:23:18;;;;;;;62.57;26.00;;;;;;;;;;4991118;28;20051;-65
2022/12/02 01:25:45;;;;;;;61.20;27.30;;;;;;;;;;4989387;28;20085;-64
2022/12/02 01:28:11;;;;;;;61.87;25.43;;;;;;;;;;4989381;28;20408;-65
2022/12/02 01:30:37;;;;;;;64.53;26.83;;;;;;;;;;4989439;28;20054;-65
2022/12/02 01:33:03;;;;;;;55.13;25.00;;;;;;;;;;4989360;28;20057;-65
2022/12/02 01:35:29;;;;;;;67.50;25.97;;;;;;;;;;4989409;28;20053;-65
2022/12/02 01:37:55;;;;;;;59.90;25.57;;;;;;;;;;4996922;28;20467;-64
2022/12/02 01:40:21;;;;;;;62.93;27.43;;;;;;;;;;5008904;28;20045;-65
2022/12/02 01:42:48;;;;;;;67.13;29.27;;;;;;;;;;4999804;28;20054;-64
2022/12/02 01:45:14;;;;;;;67.20;26.40;;;;;;;;;;4988858;28;20054;-65
2022/12/02 01:47:41;;;;;;;65.27;26.93;;;;;;;;;;4988061;28;20042;-65
2022/12/02 01:50:08;;;;;;;68.63;31.77;;;;;;;;;;4988821;28;20432;-65
2022/12/02 01:52:34;;;;;;;70.27;31.33;;;;;;;;;;5010424;28;20050;-65
2022/12/02 01:55:00;;;;;;;70.77;31.07;;;;;;;;;;5000081;28;20046;-65
2022/12/02 01:57:28;;;;;;;70.30;28.67;;;;;;;;;;4995470;28;20054;-65
2022/12/02 01:59:54;;;;;;;67.67;29.00;;;;;;;;;;4995583;28;20061;-65
2022/12/02 02:02:28;;;;;;;63.33;28.70;;;;;;;;;;4995680;28;20497;-65
2022/12/02 02:04:56;;;;;;;67.97;30.40;;;;;;;;;;4995989;28;20046;-64
2022/12/02 02:07:22;;;;;;;65.67;28.83;;;;;;;;;;5011325;28;20044;-64
2022/12/02 02:09:48;;;;;;;62.47;27.83;;;;;;;;;;5014900;28;20057;-64
2022/12/02 02:12:14;;;;;;;63.33;27.73;;;;;;;;;;5015145;28;20049;-64
2022/12/02 02:14:40;;;;;;;56.37;24.97;;;;;;;;;;5015212;28;20042;-64
2022/12/02 02:17:07;;;;;;;61.30;25.40;;;;;;;;;;5013832;28;20053;-64
2022/12/02 02:19:33;;;;;;;57.80;24.13;;;;;;;;;;5013997;28;20487;-64
2022/12/02 02:22:00;;;;;;;50.40;24.43;;;;;;;;;;4999952;28;20805;-64
2022/12/02 02:24:26;;;;;;;53.40;24.40;;;;;;;;;;5007758;28;20500;-63
2022/12/02 02:26:52;;;;;;;49.27;21.57;;;;;;;;;;5014927;28;20100;-64
2022/12/02 02:29:18;;;;;;;54.97;23.60;;;;;;;;;;5002059;28;20500;-64
2022/12/02 02:31:44;;;;;;;48.27;22.67;;;;;;;;;;4994019;28;20046;-64
2022/12/02 02:34:11;;;;;;;42.87;20.00;;;;;;;;;;4995245;28;20531;-64
2022/12/02 02:36:37;;;;;;;45.33;19.80;;;;;;;;;;5008817;28;20061;-64
2022/12/02 02:39:03;;;;;;;38.23;17.80;;;;;;;;;;5014756;28;20140;-64
2022/12/02 02:41:29;;;;;;;53.67;22.00;;;;;;;;;;5014547;28;20707;-64
2022/12/02 02:43:55;;;;;;;45.80;23.20;;;;;;;;;;5014702;28;20061;-64
2022/12/02 02:46:22;;;;;;;46.27;20.40;;;;;;;;;;5014766;28;20046;-64
2022/12/02 02:48:48;;;;;;;46.83;20.63;;;;;;;;;;5014351;28;20686;-64
2022/12/02 02:51:15;;;;;;;41.73;19.37;;;;;;;;;;5013849;28;20046;-64
2022/12/02 02:53:43;;;;;;;44.27;19.53;;;;;;;;;;5013336;28;20049;-64
2022/12/02 02:56:09;;;;;;;41.13;18.70;;;;;;;;;;5013769;28;20046;-64
2022/12/02 02:58:35;;;;;;;38.50;18.23;;;;;;;;;;4995070;28;20042;-64
2022/12/02 03:01:05;;;;;;;47.80;20.37;;;;;;;;;;5001075;28;20137;-64
2022/12/02 03:03:33;;;;;;;41.10;20.43;;;;;;;;;;5004491;28;20133;-64
2022/12/02 03:05:59;;;;;;;44.93;19.90;;;;;;;;;;4992203;28;20046;-64
2022/12/02 03:08:26;;;;;;;44.70;19.93;;;;;;;;;;4992210;28;20672;-64
2022/12/02 03:10:54;;;;;;;50.43;20.23;;;;;;;;;;4991760;28;20081;-64
2022/12/02 03:13:20;;;;;;;44.77;18.43;;;;;;;;;;4991848;28;20042;-64
2022/12/02 03:15:47;;;;;;;41.53;21.40;;;;;;;;;;4990451;28;20045;-64
2022/12/02 03:18:13;;;;;;;42.27;20.40;;;;;;;;;;4990810;28;20112;-64
2022/12/02 03:20:39;;;;;;;39.87;19.47;;;;;;;;;;4991325;28;20050;-64
2022/12/02 03:23:05;;;;;;;42.40;20.20;;;;;;;;;;4990805;28;20038;-64
2022/12/02 03:25:31;;;;;;;41.83;20.10;;;;;;;;;;4991383;28;20042;-64
2022/12/02 03:27:57;;;;;;;42.33;19.47;;;;;;;;;;4992389;28;20038;-64
2022/12/02 03:30:24;;;;;;;41.93;20.40;;;;;;;;;;4990480;28;20046;-64
2022/12/02 03:32:50;;;;;;;39.43;20.33;;;;;;;;;;4992859;28;20501;-64
2022/12/02 03:35:16;;;;;;;44.27;19.63;;;;;;;;;;4991498;28;20490;-64
2022/12/02 03:37:42;;;;;;;40.07;19.73;;;;;;;;;;4991429;28;20065;-64
2022/12/02 03:40:08;;;;;;;38.60;19.67;;;;;;;;;;4990268;28;20050;-64
2022/12/02 03:42:34;;;;;;;39.63;19.03;;;;;;;;;;4989639;28;20061;-64
2022/12/02 03:45:01;;;;;;;40.40;19.07;;;;;;;;;;4991150;28;20058;-64
2022/12/02 03:47:27;;;;;;;40.83;19.67;;;;;;;;;;4995215;28;20042;-64
2022/12/02 03:49:53;;;;;;;41.63;19.93;;;;;;;;;;5010795;28;20128;-64
2022/12/02 03:52:19;;;;;;;44.40;19.40;;;;;;;;;;5009386;28;20042;-64
2022/12/02 03:54:45;;;;;;;37.30;20.07;;;;;;;;;;4990247;28;20416;-64
2022/12/02 03:57:12;;;;;;;42.17;20.47;;;;;;;;;;4991248;28;20137;-64
2022/12/02 03:59:38;;;;;;;38.20;18.40;;;;;;;;;;4990719;28;20046;-63
2022/12/02 04:02:04;;;;;;;36.87;18.77;;;;;;;;;;4993582;28;20061;-64
2022/12/02 04:04:30;;;;;;;38.00;19.03;;;;;;;;;;5010250;28;20071;-64
2022/12/02 04:06:56;;;;;;;34.67;17.47;;;;;;;;;;5010709;28;20404;-64
2022/12/02 04:09:22;;;;;;;41.93;21.37;;;;;;;;;;5010429;28;20057;-64
2022/12/02 04:11:48;;;;;;;38.60;19.20;;;;;;;;;;5010230;28;20054;-64
2022/12/02 04:14:14;;;;;;;38.43;17.90;;;;;;;;;;5009383;28;20046;-64
2022/12/02 04:16:40;;;;;;;42.93;20.07;;;;;;;;;;4993788;28;20070;-64
2022/12/02 04:19:06;;;;;;;37.43;18.47;;;;;;;;;;4997475;28;20052;-64
2022/12/02 04:21:32;;;;;;;40.13;18.33;;;;;;;;;;5008696;28;20045;-64
2022/12/02 04:23:58;;;;;;;40.07;19.00;;;;;;;;;;4990713;28;20061;-64
2022/12/02 04:26:24;;;;;;;37.23;17.80;;;;;;;;;;4990411;28;20050;-64
2022/12/02 04:28:50;;;;;;;38.00;19.17;;;;;;;;;;4990251;28;20084;-64
2022/12/02 04:31:17;;;;;;;39.83;18.93;;;;;;;;;;4990215;28;20057;-64
2022/12/02 04:33:43;;;;;;;38.37;17.73;;;;;;;;;;4988880;28;20046;-64
2022/12/02 04:36:09;;;;;;;41.07;18.67;;;;;;;;;;4990673;28;20108;-64
2022/12/02 04:38:35;;;;;;;38.93;17.57;;;;;;;;;;4990238;28;20068;-64
2022/12/02 04:41:01;;;;;;;44.07;19.67;;;;;;;;;;4990362;28;20157;-64
2022/12/02 04:43:27;;;;;;;41.03;19.20;;;;;;;;;;4989749;28;20491;-64
2022/12/02 04:45:53;;;;;;;41.57;17.03;;;;;;;;;;5003552;28;20065;-64
2022/12/02 04:48:19;;;;;;;44.00;17.93;;;;;;;;;;5009883;28;20123;-64
2022/12/02 04:50:45;;;;;;;42.70;18.67;;;;;;;;;;5008085;28;20056;-64
2022/12/02 04:53:11;;;;;;;41.63;17.50;;;;;;;;;;4994737;28;20054;-63
2022/12/02 04:55:37;;;;;;;43.33;18.80;;;;;;;;;;4989986;28;20112;-64
2022/12/02 04:58:03;;;;;;;45.87;21.10;;;;;;;;;;4989887;28;20560;-64
2022/12/02 05:00:30;;;;;;;47.10;18.53;;;;;;;;;;4999829;28;20049;-64
2022/12/02 05:02:56;;;;;;;50.57;20.60;;;;;;;;;;4992681;28;20294;-64
2022/12/02 05:05:22;;;;;;;46.87;19.27;;;;;;;;;;4990289;28;20046;-64
2022/12/02 05:07:48;;;;;;;47.90;20.43;;;;;;;;;;4989185;28;20053;-64
2022/12/02 05:10:15;;;;;;;50.63;19.63;;;;;;;;;;4989828;28;20126;-64
2022/12/02 05:12:41;;;;;;;50.70;18.90;;;;;;;;;;4989899;28;20054;-64
2022/12/02 05:15:07;;;;;;;52.30;20.97;;;;;;;;;;4989632;28;20054;-63
2022/12/02 05:17:33;;;;;;;49.87;19.67;;;;;;;;;;4989747;28;20062;-63
2022/12/02 05:19:59;;;;;;;47.83;19.77;;;;;;;;;;4989915;28;20092;-64
2022/12/02 05:22:25;;;;;;;53.47;22.70;;;;;;;;;;4989460;28;20046;-64
2022/12/02 05:24:51;;;;;;;49.63;22.60;;;;;;;;;;4989486;28;20424;-64
2022/12/02 05:27:17;;;;;;;64.07;23.93;;;;;;;;;;4987729;28;20046;-64
2022/12/02 05:29:43;;;;;;;55.37;20.73;;;;;;;;;;4988722;28;20042;-64
2022/12/02 05:32:10;;;;;;;48.27;20.60;;;;;;;;;;4989898;28;20092;-64
2022/12/02 05:34:36;;;;;;;52.07;23.03;;;;;;;;;;4989323;28;20058;-64
2022/12/02 05:37:02;;;;;;;47.90;19.90;;;;;;;;;;4989654;28;20070;-64
2022/12/02 05:39:28;;;;;;;58.97;21.33;;;;;;;;;;4989982;28;20042;-64
2022/12/02 05:41:58;;;;;;;53.97;23.13;;;;;;;;;;5007587;28;20057;-64
2022/12/02 05:44:25;;;;;;;55.40;20.80;;;;;;;;;;4991981;28;20058;-64
2022/12/02 05:46:52;;;;;;;62.13;22.77;;;;;;;;;;4987866;28;20081;-64
2022/12/02 05:49:22;;;;;;;53.37;21.67;;;;;;;;;;4988582;28;20138;-64
2022/12/02 05:51:59;;;;;;;51.47;20.63;;;;;;;;;;4994725;28;20050;-64
2022/12/02 05:54:26;;;;;;;57.30;24.17;;;;;;;;;;4989117;28;20046;-64
2022/12/02 05:56:52;;;;;;;53.43;21.80;;;;;;;;;;4986051;28;20407;-64
2022/12/02 05:59:19;;;;;;;51.20;22.57;;;;;;;;;;4987328;28;20061;-64
2022/12/02 06:01:47;;;;;;;51.90;20.97;;;;;;;;;;5005656;28;20037;-64
2022/12/02 06:04:19;;;;;;;56.93;23.07;;;;;;;;;;5006255;28;20096;-64
2022/12/02 06:06:45;;;;;;;49.77;21.97;;;;;;;;;;5000887;28;20578;-64
2022/12/02 06:09:18;;;;;;;56.17;22.83;;;;;;;;;;5007075;28;20292;-64
2022/12/02 06:11:44;;;;;;;55.25;21.40;;;;;;;;;;5007535;28;20073;-64
2022/12/02 06:14:14;;;;;;;58.90;23.70;;;;;;;;;;5004336;28;20420;-64
2022/12/02 06:16:40;;;;;;;51.53;23.33;;;;;;;;;;5006009;28;20038;-64
2022/12/02 06:19:14;;;;;;;54.80;23.90;;;;;;;;;;5008655;28;20053;-64
2022/12/02 06:21:40;;;;;;;;;;;;;;;;;;5009060;28;20472;-64
2022/12/02 06:24:09;;;;;;;55.93;22.60;;;;;;;;;;5008238;28;20003;-64
2022/12/02 06:26:35;;;;;;;53.97;22.67;;;;;;;;;;5007208;28;20056;-64
2022/12/02 06:29:03;;;;;;;57.27;23.23;;;;;;;;;;5002535;28;20058;-64
2022/12/02 06:31:32;;;;;;;61.20;24.10;;;;;;;;;;5008304;28;20057;-64
2022/12/02 06:34:00;;;;;;;63.87;24.57;;;;;;;;;;5008706;28;20073;-64
2022/12/02 06:36:30;;;;;;;57.33;22.17;;;;;;;;;;5008486;28;20042;-63
2022/12/02 06:38:58;;;;;;;57.33;22.40;;;;;;;;;;5009373;28;20401;-64
2022/12/02 06:41:26;;;;;;;63.07;24.50;;;;;;;;;;5010758;28;20815;-64
2022/12/02 06:46:41;;;;;;;68.97;25.90;;;;;;;;;;5011616;28;20347;-63
2022/12/02 06:49:16;;;;;;;71.97;25.57;;;;;;;;;;4998127;28;20304;-64
2022/12/02 06:51:42;;;;;;;67.63;25.53;;;;;;;;;;4992297;28;20096;-64
2022/12/02 06:54:20;;;;;;;66.93;28.03;;;;;;;;;;4990907;28;20054;-64
2022/12/02 06:56:47;;;;;;;70.80;24.90;;;;;;;;;;4992531;28;20046;-64
2022/12/02 06:59:14;;;;;;;68.40;24.03;;;;;;;;;;4992185;28;20604;-64
2022/12/02 07:01:43;;;;;;;74.17;25.77;;;;;;;;;;4991981;28;20489;-64
2022/12/02 07:04:09;;;;;;;73.47;27.00;;;;;;;;;;4991686;28;20058;-64
2022/12/02 07:06:39;;;;;;;73.10;28.00;;;;;;;;;;4992016;28;20104;-64
2022/12/02 07:09:11;;;;;;;72.63;26.53;;;;;;;;;;4991702;28;20057;-64
2022/12/02 07:11:54;;;;;;;84.07;28.93;;;;;;;;;;4992922;28;20058;-64
2022/12/02 07:14:39;;;;;;;76.43;27.13;;;;;;;;;;5004019;28;20053;-64
2022/12/02 07:17:23;;;;;;;78.10;25.80;;;;;;;;;;4991596;28;20043;-64
2022/12/02 07:19:54;;;;;;;81.17;29.70;;;;;;;;;;4990565;28;20094;-64
2022/12/02 07:22:22;;;;;;;85.60;32.13;;;;;;;;;;4991853;28;20047;-64
2022/12/02 07:24:54;;;;;;;82.40;32.07;;;;;;;;;;4990595;28;20391;-64
2022/12/02 07:27:22;;;;;;;72.07;28.40;;;;;;;;;;4991617;28;20042;-64
2022/12/02 07:29:48;;;;;;;74.00;28.50;;;;;;;;;;4997141;28;20068;-64
2022/12/02 07:32:14;;;;;;;78.97;29.93;;;;;;;;;;4995138;28;20779;-64
2022/12/02 07:34:40;;;;;;;81.77;31.27;;;;;;;;;;5002009;28;20301;-64
2022/12/02 07:37:07;;;;;;;84.07;29.23;;;;;;;;;;4991620;28;20436;-64
2022/12/02 07:39:33;;;;;;;77.67;28.67;;;;;;;;;;4991380;28;20046;-64
2022/12/02 07:41:59;;;;;;;75.70;28.43;;;;;;;;;;4991155;28;20828;-63
2022/12/02 07:44:25;;;;;;;78.93;30.50;;;;;;;;;;4991005;28;20162;-64
2022/12/02 07:46:51;;;;;;;75.73;30.43;;;;;;;;;;5019513;28;20038;-64
2022/12/02 07:49:17;;;;;;;78.80;29.50;;;;;;;;;;5028816;28;20111;-64
2022/12/02 07:51:43;;;;;;;69.10;26.87;;;;;;;;;;5020233;28;20046;-64
2022/12/02 07:54:09;;;;;;;69.07;27.97;;;;;;;;;;4991053;28;20061;-64
2022/12/02 07:56:35;;;;;;;77.70;31.40;;;;;;;;;;4997913;28;20049;-64
2022/12/02 07:59:02;;;;;;;65.53;28.27;;;;;;;;;;5008602;28;20141;-64
2022/12/02 08:01:28;;;;;;;65.43;24.93;;;;;;;;;;4992825;28;20053;-64
2022/12/02 08:03:54;;;;;;;61.30;25.47;;;;;;;;;;5009387;28;20057;-64
2022/12/02 08:06:20;;;;;;;65.53;28.57;;;;;;;;;;5010507;28;20496;-64
2022/12/02 08:08:46;;;;;;;72.03;29.20;;;;;;;;;;5005669;28;20125;-64
2022/12/02 08:11:12;;;;;;;69.43;27.40;;;;;;;;;;4995206;28;20132;-64
2022/12/02 08:13:38;;;;;;;63.53;24.93;;;;;;;;;;5010205;28;20052;-64
2022/12/02 08:16:04;;;;;;;69.47;26.43;;;;;;;;;;5010031;28;20404;-64
2022/12/02 08:18:30;;;;;;;76.70;29.27;;;;;;;;;;5009936;28;20139;-64
2022/12/02 08:20:56;;;;;;;64.40;27.63;;;;;;;;;;5010254;28;20081;-64
2022/12/02 08:23:22;;;;;;;79.93;30.93;;;;;;;;;;5009943;28;20072;-64
2022/12/02 08:25:48;;;;;;;72.37;27.67;;;;;;;;;;5005151;28;20045;-64
2022/12/02 08:28:14;;;;;;;65.43;27.13;;;;;;;;;;5009943;28;20158;-64
2022/12/02 08:30:40;;;;;;;68.77;29.17;;;;;;;;;;5008558;28;20095;-64
2022/12/02 08:33:06;;;;;;;63.87;25.70;;;;;;;;;;5009914;28;20042;-63
2022/12/02 08:35:32;;;;;;;64.63;26.40;;;;;;;;;;5009563;28;20049;-64
2022/12/02 08:37:58;;;;;;;62.37;24.20;;;;;;;;;;5008156;28;20424;-64
2022/12/02 08:40:24;;;;;;;73.30;28.63;;;;;;;;;;4997871;28;20038;-64
2022/12/02 08:42:50;;;;;;;67.77;26.23;;;;;;;;;;4990097;28;20046;-64
2022/12/02 08:45:17;;;;;;;64.97;26.63;;;;;;;;;;4990298;28;20057;-64
2022/12/02 08:47:43;;;;;;;66.47;29.60;;;;;;;;;;4989764;28;20042;-64
2022/12/02 08:50:09;;;;;;;65.83;26.50;;;;;;;;;;4989930;28;20046;-64
2022/12/02 08:52:35;;;;;;;64.03;24.07;;;;;;;;;;4997421;28;20038;-64
2022/12/02 08:55:02;;;;;;;71.67;26.83;;;;;;;;;;5005668;28;20096;-64
2022/12/02 08:57:28;;;;;;;69.10;28.33;;;;;;;;;;4989749;28;20052;-63
2022/12/02 08:59:54;;;;;;;64.10;25.87;;;;;;;;;;4994604;28;20050;-64
2022/12/02 09:02:20;;;;;;;65.70;28.50;;;;;;;;;;5008927;28;20042;-64
2022/12/02 09:04:46;;;;;;;67.23;26.70;;;;;;;;;;5009423;28;20132;-64
2022/12/02 09:07:12;;;;;;;63.67;25.20;;;;;;;;;;5008924;28;20128;-63
2022/12/02 09:09:38;;;;;;;64.43;25.67;;;;;;;;;;5006608;28;20100;-64
2022/12/02 09:12:04;;;;;;;61.73;26.33;;;;;;;;;;4989630;28;20052;-64
2022/12/02 09:14:30;;;;;;;64.47;25.80;;;;;;;;;;4989553;28;20109;-64
2022/12/02 09:16:56;;;;;;;59.70;24.53;;;;;;;;;;4992833;28;20049;-63
2022/12/02 09:19:22;;;;;;;69.57;25.07;;;;;;;;;;4989157;28;20072;-63
2022/12/02 09:21:48;;;;;;;58.73;23.43;;;;;;;;;;4989167;28;20039;-64
2022/12/02 09:24:14;;;;;;;61.97;25.33;;;;;;;;;;4988349;28;20138;-63
2022/12/02 09:26:40;;;;;;;66.80;25.33;;;;;;;;;;4988032;28;20513;-64
2022/12/02 09:29:06;;;;;;;52.93;23.33;;;;;;;;;;4988510;28;20042;-64
2022/12/02 09:31:32;;;;;;;65.23;24.30;;;;;;;;;;4997597;28;20056;-64
2022/12/02 09:33:58;;;;;;;51.03;23.83;;;;;;;;;;5002608;28;20047;-64
2022/12/02 09:36:24;;;;;;;63.00;25.83;;;;;;;;;;4989307;28;20046;-64
2022/12/02 09:38:50;;;;;;;62.93;24.87;;;;;;;;;;4987509;28;20057;-63
2022/12/02 09:41:16;;;;;;;63.67;24.83;;;;;;;;;;4988891;28;20618;-64
2022/12/02 09:43:43;;;;;;;63.83;24.67;;;;;;;;;;4989093;28;20061;-63
2022/12/02 09:46:09;;;;;;;60.63;25.00;;;;;;;;;;4989038;28;20102;-64
2022/12/02 09:48:35;;;;;;;64.37;25.30;;;;;;;;;;4989090;28;20385;-64
2022/12/02 09:51:01;;;;;;;67.57;26.57;;;;;;;;;;4992711;28;20523;-63
2022/12/02 09:53:30;;;;;;;58.87;24.83;;;;;;;;;;4988843;28;20049;-64
2022/12/02 09:55:56;;;;;;;62.20;25.87;;;;;;;;;;4988873;28;20054;-63
2022/12/02 09:58:22;;;;;;;65.73;27.40;;;;;;;;;;4988908;28;20042;-64
2022/12/02 10:00:51;;;;;;;64.63;26.03;;;;;;;;;;4988696;28;20052;-64
2022/12/02 10:03:20;;;;;;;67.47;26.90;;;;;;;;;;4987527;28;20054;-64
2022/12/02 10:05:46;;;;;;;63.90;26.30;;;;;;;;;;5004781;28;20046;-64
2022/12/02 10:08:20;;;;;;;67.67;27.37;;;;;;;;;;5000034;28;20050;-64
2022/12/02 10:10:47;;;;;;;60.83;24.70;;;;;;;;;;4988773;28;20054;-63
2022/12/02 10:13:18;;;;;;;64.20;27.07;;;;;;;;;;4990805;28;20050;-64
2022/12/02 10:15:44;;;;;;;61.20;24.57;;;;;;;;;;4992191;28;20042;-63
2022/12/02 10:18:37;;;;;;;62.17;25.83;;;;;;;;;;4992587;28;20081;-64
2022/12/02 10:21:03;;;;;;;60.67;25.40;;;;;;;;;;4991105;28;20062;-63
2022/12/02 10:23:29;;;;;;;68.40;28.57;;;;;;;;;;4992495;28;20417;-63
2022/12/02 10:26:08;;;;;;;63.03;26.43;;;;;;;;;;5005467;28;20369;-64
2022/12/02 10:28:36;;;;;;;64.53;26.87;;;;;;;;;;5011908;28;20077;-64
2022/12/02 10:31:12;;;;;;;63.93;24.83;;;;;;;;;;5012214;28;20049;-64
2022/12/02 10:33:40;;;;;;;53.63;20.60;;;;;;;;;;5011139;28;20111;-63
2022/12/02 10:36:06;;;;;;;54.70;21.43;;;;;;;;;;5012119;28;20128;-64
2022/12/02 10:38:40;;;;;;;55.73;21.57;;;;;;;;;;5004392;28;20105;-63
2022/12/02 10:41:12;;;;;;;53.88;20.90;;;;;;;;;;4992249;28;20487;-64
2022/12/02 10:43:38;;;;;;;50.67;20.83;;;;;;;;;;5010953;28;20544;-64
2022/12/02 10:46:04;;;;;;;44.13;18.80;;;;;;;;;;4999765;28;20058;-63
2022/12/02 10:48:30;;;;;;;46.40;20.33;;;;;;;;;;4990780;28;20093;-64
2022/12/02 10:50:57;;;;;;;45.77;17.77;;;;;;;;;;4991633;28;20404;-63
2022/12/02 10:53:26;;;;;;;40.43;17.83;;;;;;;;;;4992051;28;20062;-63
2022/12/02 10:55:52;;;;;;;36.07;14.43;;;;;;;;;;4991933;28;20130;-64
2022/12/02 10:58:24;;;;;;;41.43;16.83;;;;;;;;;;4992103;28;20065;-63
2022/12/02 11:00:50;;;;;;;39.63;15.63;;;;;;;;;;5009079;28;20048;-63
2022/12/02 11:03:19;;;;;;;39.40;16.17;;;;;;;;;;4991484;28;20089;-63
2022/12/02 11:05:45;;;;;;;42.07;19.60;;;;;;;;;;4990765;28;20042;-64
2022/12/02 11:08:22;;;;;;;48.67;21.60;;;;;;;;;;4992010;28;20038;-63
2022/12/02 11:11:07;;;;;;;44.17;19.13;;;;;;;;;;4991787;28;20559;-63
2022/12/02 11:13:57;;;;;;;48.17;21.53;;;;;;;;;;4999693;28;20038;-63
2022/12/02 11:16:29;;;;;;;41.07;19.47;;;;;;;;;;4990675;28;20539;-63
2022/12/02 11:18:58;;;;;;;50.07;18.97;;;;;;;;;;5001100;28;20050;-63
2022/12/02 11:21:27;;;;;;;43.13;18.77;;;;;;;;;;5010868;28;20404;-63
2022/12/02 11:24:16;;;;;;;39.57;18.73;;;;;;;;;;4997804;28;20046;-63
2022/12/02 11:27:01;;;;;;;34.37;17.80;;;;;;;;;;5005378;28;20141;-63
2022/12/02 11:29:37;;;;;;;36.50;18.37;;;;;;;;;;4991589;28;20070;-63
2022/12/02 11:32:19;;;;;;;37.40;17.43;;;;;;;;;;4989131;28;20046;-63
2022/12/02 11:34:45;;;;;;;46.00;20.60;;;;;;;;;;4991305;28;20473;-63
2022/12/02 11:37:26;;;;;;;43.73;19.37;;;;;;;;;;4990854;28;20145;-63
2022/12/02 11:39:53;;;;;;;48.57;20.70;;;;;;;;;;4990886;28;20050;-64
2022/12/02 11:42:23;;;;;;;45.40;19.83;;;;;;;;;;4990887;28;20042;-63
2022/12/02 11:44:50;;;;;;;39.10;17.93;;;;;;;;;;4990958;28;20066;-63
2022/12/02 11:47:33;;;;;;;52.47;20.53;;;;;;;;;;4992351;28;20046;-63
2022/12/02 11:50:14;;;;;;;51.03;23.43;;;;;;;;;;4994657;28;20050;-63
2022/12/02 11:52:41;;;;;;;52.73;22.93;;;;;;;;;;4990790;28;20046;-63
2022/12/02 11:55:12;;;;;;;49.40;23.70;;;;;;;;;;4991428;28;20039;-63
2022/12/02 11:57:48;;;;;;;56.63;24.23;;;;;;;;;;4990757;28;20046;-63
2022/12/02 12:00:19;;;;;;;51.87;24.60;;;;;;;;;;4990319;28;20081;-64
2022/12/02 12:02:45;;;;;;;58.80;25.53;;;;;;;;;;4996390;28;20101;-63
2022/12/02 12:05:11;;;;;;;51.23;23.43;;;;;;;;;;5002079;28;20049;-63
2022/12/02 12:07:45;;;;;;;55.47;25.30;;;;;;;;;;4989455;28;20100;-63
2022/12/02 12:10:11;;;;;;;;;;;;;;;;;;4991139;28;20449;-63
2022/12/02 12:12:37;;;;;;;58.13;25.00;;;;;;;;;;4988882;28;19976;-63
2022/12/02 12:15:04;;;;;;;57.63;26.27;;;;;;;;;;4989503;28;20050;-63
2022/12/02 12:17:39;;;;;;;56.47;26.00;;;;;;;;;;4990094;28;20078;-62
2022/12/02 12:20:25;;;;;;;66.30;29.73;;;;;;;;;;4990177;28;20046;-62
2022/12/02 12:22:52;;;;;;;62.93;28.27;;;;;;;;;;4990012;28;20053;-62
2022/12/02 12:25:37;;;;;;;65.10;29.07;;;;;;;;;;4990007;28;20046;-61
2022/12/02 12:28:03;;;;;;;69.07;30.47;;;;;;;;;;4990312;28;20039;-62
2022/12/02 12:30:29;;;;;;;58.30;26.80;;;;;;;;;;4988762;28;20046;-62
2022/12/02 12:32:55;;;;;;;67.03;29.70;;;;;;;;;;4989785;28;20050;-62
2022/12/02 12:35:21;;;;;;;63.03;29.47;;;;;;;;;;4989819;28;20104;-63
2022/12/02 12:37:47;;;;;;;61.70;28.70;;;;;;;;;;4989270;28;20078;-62
2022/12/02 12:40:13;;;;;;;72.53;31.53;;;;;;;;;;4990055;28;20054;-62
2022/12/02 12:42:39;;;;;;;64.30;28.83;;;;;;;;;;4992018;28;20089;-62
2022/12/02 12:45:05;;;;;;;71.03;30.90;;;;;;;;;;4998323;28;20104;-61
2022/12/02 12:47:31;;;;;;;68.43;31.67;;;;;;;;;;5003329;28;20099;-62
2022/12/02 12:49:58;;;;;;;62.70;28.67;;;;;;;;;;4996592;28;20077;-62
2022/12/02 12:52:24;;;;;;;65.33;29.93;;;;;;;;;;5000303;28;20489;-62
2022/12/02 12:54:50;;;;;;;63.47;26.43;;;;;;;;;;4999679;28;20054;-61
2022/12/02 12:57:16;;;;;;;68.47;30.37;;;;;;;;;;4999527;28;20045;-61
2022/12/02 12:59:42;;;;;;;68.93;31.80;;;;;;;;;;5000367;28;20464;-62
2022/12/02 13:02:08;;;;;;;58.80;27.13;;;;;;;;;;5000665;28;20096;-61
2022/12/02 13:04:34;;;;;;;62.67;28.83;;;;;;;;;;5000137;28;20046;-62
2022/12/02 13:07:00;;;;;;;64.40;29.90;;;;;;;;;;5000216;28;20307;-62
2022/12/02 13:09:26;;;;;;;63.77;29.30;;;;;;;;;;4997099;28;20655;-62
2022/12/02 13:11:52;;;;;;;71.00;31.30;;;;;;;;;;4995716;28;20053;-61
2022/12/02 13:14:18;;;;;;;69.97;30.57;;;;;;;;;;4999200;28;20050;-61
2022/12/02 13:16:44;;;;;;;65.77;27.93;;;;;;;;;;4997771;28;20045;-61
2022/12/02 13:19:10;;;;;;;65.27;30.93;;;;;;;;;;4992905;28;20167;-61
2022/12/02 13:21:37;;;;;;;74.80;35.13;;;;;;;;;;4998408;28;20042;-61
2022/12/02 13:24:04;;;;;;;68.10;32.73;;;;;;;;;;4998777;28;20038;-61
2022/12/02 13:26:30;;;;;;;70.37;33.37;;;;;;;;;;4997376;28;20053;-61
2022/12/02 13:28:56;;;;;;;64.17;32.87;;;;;;;;;;5001007;28;20046;-61
2022/12/02 13:31:22;;;;;;;68.30;32.37;;;;;;;;;;4996148;28;20050;-61
2022/12/02 13:33:48;;;;;;;65.87;32.20;;;;;;;;;;4996413;28;20548;-61
2022/12/02 13:36:14;;;;;;;72.63;31.03;;;;;;;;;;5001273;28;20045;-61
2022/12/02 13:38:40;;;;;;;70.70;32.63;;;;;;;;;;4995713;28;20415;-61
2022/12/02 13:41:06;;;;;;;70.40;36.53;;;;;;;;;;5010914;28;20034;-61
2022/12/02 13:43:33;;;;;;;67.27;31.70;;;;;;;;;;5007385;28;20147;-61
2022/12/02 13:45:59;;;;;;;75.17;35.83;;;;;;;;;;5008759;28;20057;-62
2022/12/02 13:48:25;;;;;;;72.03;32.37;;;;;;;;;;5008509;28;20050;-61
2022/12/02 13:50:51;;;;;;;63.67;31.40;;;;;;;;;;4994231;28;20042;-61
2022/12/02 13:53:17;;;;;;;62.37;29.90;;;;;;;;;;4988822;28;20046;-62
2022/12/02 13:55:43;;;;;;;68.60;31.80;;;;;;;;;;4987491;28;20470;-61
2022/12/02 13:58:09;;;;;;;69.57;31.80;;;;;;;;;;4988633;28;20472;-62
2022/12/02 14:00:35;;;;;;;63.30;30.33;;;;;;;;;;4988712;28;20073;-62
2022/12/02 14:03:01;;;;;;;64.07;30.40;;;;;;;;;;4988997;28;20047;-61
2022/12/02 14:05:27;;;;;;;65.63;32.27;;;;;;;;;;4989181;28;20058;-61
2022/12/02 14:07:54;;;;;;;67.43;31.03;;;;;;;;;;4988985;28;20050;-61
2022/12/02 14:10:20;;;;;;;64.87;29.67;;;;;;;;;;4988938;28;20408;-62
2022/12/02 14:12:46;;;;;;;71.10;33.17;;;;;;;;;;4988898;28;20046;-61
2022/12/02 14:15:12;;;;;;;71.73;33.10;;;;;;;;;;4988832;28;20043;-61
2022/12/02 14:17:38;;;;;;;67.23;35.60;;;;;;;;;;4988325;28;20042;-61
2022/12/02 14:20:04;;;;;;;63.83;29.13;;;;;;;;;;4989106;28;20080;-61
2022/12/02 14:22:31;;;;;;;66.47;33.03;;;;;;;;;;4988463;28;20412;-61
2022/12/02 14:24:57;;;;;;;68.37;31.50;;;;;;;;;;4988707;28;20046;-61
2022/12/02 14:27:24;;;;;;;66.20;32.10;;;;;;;;;;4988670;28;20137;-61